Time;durP1;ratioP1;P1;durP2;ratioP2;P2;SDS_P1;SDS_P2;PMS_P1;PMS_P2;Temp;Humidity;BMP_temperature;BMP_pressure;BME280_temperature;BME280_humidity;BME280_pressure;Samples;Min_cycle;Max_cycle;Signal;HPM_P1;HPM_P2
2021/08/09 04:54:39;;;;;;;;;;;;;;;26.95;52.46;100302.25;1838363;77;20723;-69
2021/08/09 04:57:08;;;;;;;;;;;;;;;27.09;52.07;100296.09;1751714;80;20117;-69
2021/08/09 04:59:35;;;;;;;;;;;;;;;27.26;51.96;100294.02;1768071;80;21115;-69
2021/08/09 05:02:03;;;;;;;;;;;;;;;27.53;51.59;100302.67;1765163;81;20092;-69
2021/08/09 05:04:31;;;;;;;;;;;;;;;27.77;51.21;100298.00;1770583;78;20092;-72
2021/08/09 05:07:01;;;;;;;;;;;;;;;28.01;50.67;100301.60;1798701;78;20181;-66
2021/08/09 05:09:28;;;;;;;;;;;;;;;28.24;49.59;100296.07;1805049;78;20103;-67
2021/08/09 05:11:59;;;;;;;;;;;;;;;28.35;49.69;100296.89;1803466;78;21507;-69
2021/08/09 05:14:26;;;;;;;;;;;;;;;28.45;49.13;100296.52;1794505;78;20109;-70
2021/08/09 05:16:56;;;;;;;;;;;;;;;28.54;48.87;100296.69;1806510;78;20160;-71
2021/08/09 05:19:23;;;;;;;;;;;;;;;28.66;48.78;100299.14;1795663;78;20121;-70
2021/08/09 05:21:50;;;;;;;;;;;;;;;28.83;48.20;100290.28;1793267;78;20099;-75
2021/08/09 05:24:17;;;;;;;;;;;;;;;29.01;48.02;100289.76;1797694;78;21496;-79
2021/08/09 05:26:44;;;;;;;;;;;;;;;29.16;48.03;100294.48;1803969;78;20433;-75
2021/08/09 05:29:11;;;;;;;;;;;;;;;29.33;48.22;100297.09;1794675;78;20428;-81
2021/08/09 05:31:45;;;;;;;;;;;;;;;29.51;47.85;100299.25;1791918;78;20097;-73
2021/08/09 05:34:11;;;;;;;;;;;;;;;29.73;47.61;100303.93;1795278;78;20188;-72
2021/08/09 05:36:43;;;;;;;;;;;;;;;29.84;47.31;100308.19;1805853;78;20632;-75
2021/08/09 05:39:09;;;;;;;;;;;;;;;30.00;46.86;100315.55;1796554;78;20113;-81
2021/08/09 05:41:37;;;;;;;;;;;;;;;30.21;46.04;100314.02;1809377;78;20130;-73
2021/08/09 05:44:04;;;;;;;;;;;;;;;30.28;45.46;100320.73;1805342;78;20107;-77
2021/08/09 05:46:34;;;;;;;;;;;;;;;30.31;45.54;100320.32;1806745;78;20112;-76
2021/08/09 05:49:04;;;;;;;;;;;;;;;30.47;45.23;100330.11;1786780;78;21130;-76
2021/08/09 05:51:40;;;;;;;;;;;;;;;30.57;44.86;100332.92;1783960;78;20086;-80
2021/08/09 05:54:08;;;;;;;;;;;;;;;30.62;44.26;100334.47;1790447;79;20622;-76
2021/08/09 05:56:37;;;;;;;;;;;;;;;30.66;44.16;100329.81;1789112;80;20364;-71
2021/08/09 05:59:06;;;;;;;;;;;;;;;30.79;44.15;100331.66;1791644;79;20483;-72
2021/08/09 06:01:40;;;;;;;;;;;;;;;30.93;43.66;100329.22;1786449;80;20511;-69
2021/08/09 06:04:07;;;;;;;;;;;;;;;31.09;43.75;100322.04;1796031;78;20176;-70
2021/08/09 06:08:06;;;;;;;;;;;;;;;31.60;42.96;100329.77;1834395;77;20259;-66
2021/08/09 06:10:33;;;;;;;;;;;;;;;31.83;42.18;100326.88;1762791;80;20190;-65
2021/08/09 06:13:03;;;;;;;;;;;;;;;32.04;41.23;100328.36;1762965;80;21118;-68
2021/08/09 06:15:34;;;;;;;;;;;;;;;32.06;40.43;100331.66;1757317;79;20140;-72
2021/08/09 06:18:02;;;;;;;;;;;;;;;32.05;40.11;100327.32;1751721;80;20106;-72
2021/08/09 06:20:30;;;;;;;;;;;;;;;32.13;39.75;100328.41;1759196;81;20088;-73
2021/08/09 06:22:58;;;;;;;;;;;;;;;32.14;39.34;100332.75;1767572;78;20123;-74
2021/08/09 06:25:30;;;;;;;;;;;;;;;32.11;38.83;100333.19;1774429;80;20086;-72
2021/08/09 06:27:57;;;;;;;;;;;;;;;32.11;38.72;100335.87;1707232;81;20115;-73
2021/08/09 06:30:26;;;;;;;;;;;;;;;32.06;38.88;100336.23;1765805;80;20098;-75
2021/08/09 06:32:54;;;;;;;;;;;;;;;31.98;39.11;100337.87;1787162;80;20125;-76
2021/08/09 06:35:23;;;;;;;;;;;;;;;31.92;39.90;100345.47;1761032;80;20158;-75
2021/08/09 06:37:50;;;;;;;;;;;;;;;31.97;40.31;100337.56;1768886;80;21022;-75
2021/08/09 06:40:16;;;;;;;;;;;;;;;32.01;40.84;100338.75;1766164;78;20129;-72
2021/08/09 06:42:46;;;;;;;;;;;;;;;31.97;40.35;100334.88;1753154;80;20106;-76
2021/08/09 06:45:14;;;;;;;;;;;;;;;31.88;40.10;100330.27;1729826;83;20104;-70
2021/08/09 06:47:42;;;;;;;;;;;;;;;31.77;40.82;100333.13;1779273;80;20151;-71
2021/08/09 06:50:09;;;;;;;;;;;;;;;31.75;41.45;100324.95;1750040;80;21099;-70
2021/08/09 06:52:38;;;;;;;;;;;;;;;31.80;40.28;100324.61;1780619;80;20104;-72
2021/08/09 06:55:08;;;;;;;;;;;;;;;31.64;40.25;100325.61;1793682;78;20431;-72
2021/08/09 06:57:39;;;;;;;;;;;;;;;31.47;40.09;100326.14;1787995;78;20113;-72
2021/08/09 07:00:06;;;;;;;;;;;;;;;31.40;40.53;100329.90;1788398;78;20113;-71
2021/08/09 07:02:37;;;;;;;;;;;;;;;31.38;41.12;100336.02;1783512;78;21135;-68
2021/08/09 07:05:06;;;;;;;;;;;;;;;31.40;40.47;100337.45;1786527;78;20462;-71
2021/08/09 07:07:33;;;;;;;;;;;;;;;31.48;40.02;100337.73;1769561;78;20177;-70
2021/08/09 07:10:03;;;;;;;;;;;;;;;31.52;39.48;100342.98;1791792;79;20252;-68
2021/08/09 07:12:33;;;;;;;;;;;;;;;31.52;38.94;100343.51;1765614;79;20466;-69
2021/08/09 07:15:00;;;;;;;;;;;;;;;31.50;39.38;100339.69;1790491;79;21621;-70
2021/08/09 07:17:28;;;;;;;;;;;;;;;31.62;39.57;100339.28;1785459;79;20466;-70
2021/08/09 07:19:55;;;;;;;;;;;;;;;31.85;39.30;100337.43;1725288;82;20123;-70
2021/08/09 07:22:21;;;;;;;;;;;;;;;31.94;38.43;100340.69;1777389;79;20087;-67
2021/08/09 07:24:49;;;;;;;;;;;;;;;31.91;37.92;100335.73;1766115;79;20098;-69
2021/08/09 07:27:15;;;;;;;;;;;;;;;32.04;37.68;100343.18;1788421;79;21796;-69
2021/08/09 07:29:43;;;;;;;;;;;;;;;32.21;37.28;100337.27;1766865;79;20081;-74
2021/08/09 07:32:10;;;;;;;;;;;;;;;32.35;36.71;100332.92;1775044;79;20116;-72
2021/08/09 07:34:37;;;;;;;;;;;;;;;32.38;36.46;100331.66;1787533;79;20104;-71
2021/08/09 07:37:06;;;;;;;;;;;;;;;32.35;36.28;100332.92;1758280;79;20119;-66
2021/08/09 07:39:36;;;;;;;;;;;;;;;32.37;35.67;100341.62;1777457;79;21325;-70
2021/08/09 07:42:04;;;;;;;;;;;;;;;32.20;35.89;100340.48;1779225;79;20300;-71
2021/08/09 07:44:31;;;;;;;;;;;;;;;32.07;36.22;100344.09;1761987;80;20155;-72
2021/08/09 07:46:59;;;;;;;;;;;;;;;32.01;36.43;100345.48;1763557;79;20093;-72
2021/08/09 07:49:26;;;;;;;;;;;;;;;31.97;35.67;100352.37;1771511;79;20128;-70
2021/08/09 07:51:55;;;;;;;;;;;;;;;31.95;36.10;100352.59;1780331;79;21010;-73
2021/08/09 07:54:25;;;;;;;;;;;;;;;32.03;35.74;100350.13;1767637;80;20170;-71
2021/08/09 07:56:52;;;;;;;;;;;;;;;32.02;35.26;100347.95;1740369;80;20120;-70
2021/08/09 07:59:21;;;;;;;;;;;;;;;31.89;35.40;100349.42;1779247;80;20080;-67
2021/08/09 08:01:49;;;;;;;;;;;;;;;31.79;35.54;100336.95;1740288;79;20196;-68
2021/08/09 08:04:16;;;;;;;;;;;;;;;31.59;35.78;100328.95;1771923;79;21926;-67
2021/08/09 08:06:43;;;;;;;;;;;;;;;31.40;36.86;100327.20;1772389;79;20445;-71
2021/08/09 08:09:10;;;;;;;;;;;;;;;31.29;37.29;100332.73;1768938;79;20128;-73
2021/08/09 08:11:39;;;;;;;;;;;;;;;31.27;36.93;100328.60;1773056;79;20141;-72
2021/08/09 08:14:06;;;;;;;;;;;;;;;31.21;37.16;100333.48;1753533;79;20097;-71
2021/08/09 08:16:34;;;;;;;;;;;;;;;31.20;37.38;100327.28;1763836;79;22426;-75
2021/08/09 08:19:02;;;;;;;;;;;;;;;31.22;37.64;100321.69;1780595;79;20126;-68
2021/08/09 08:21:29;;;;;;;;;;;;;;;31.25;37.41;100318.57;1769059;79;20165;-70
2021/08/09 08:23:58;;;;;;;;;;;;;;;31.35;37.54;100318.42;1763694;79;20388;-68
2021/08/09 08:26:26;;;;;;;;;;;;;;;31.48;37.10;100316.20;1760738;79;20140;-70
2021/08/09 08:28:54;;;;;;;;;;;;;;;31.55;36.92;100325.58;1765752;79;21950;-71
2021/08/09 08:31:23;;;;;;;;;;;;;;;31.48;36.82;100314.84;1757078;79;20105;-71
2021/08/09 08:33:52;;;;;;;;;;;;;;;31.29;36.42;100308.52;1772127;79;20198;-71
2021/08/09 08:36:22;;;;;;;;;;;;;;;31.06;35.95;100305.50;1780354;79;20178;-72
2021/08/09 08:38:49;;;;;;;;;;;;;;;30.83;36.67;100318.07;1802259;79;20098;-70
2021/08/09 08:41:18;;;;;;;;;;;;;;;30.61;37.15;100316.69;1769183;80;21106;-75
2021/08/09 08:43:47;;;;;;;;;;;;;;;30.52;37.47;100312.02;1780204;80;20089;-74
2021/08/09 08:46:14;;;;;;;;;;;;;;;30.37;37.63;100303.38;1782362;80;20139;-75
2021/08/09 08:48:43;;;;;;;;;;;;;;;30.19;38.41;100304.82;1773060;80;20467;-73
2021/08/09 08:51:10;;;;;;;;;;;;;;;29.97;38.98;100309.23;1780403;79;20193;-74
2021/08/09 08:53:38;;;;;;;;;;;;;;;29.84;39.11;100316.24;1781999;80;21537;-67
2021/08/09 08:56:06;;;;;;;;;;;;;;;29.73;39.67;100306.09;1762912;80;20139;-75
2021/08/09 08:58:34;;;;;;;;;;;;;;;29.83;39.88;100303.02;1774271;79;20108;-71
2021/08/09 09:01:08;;;;;;;;;;;;;;;29.95;39.75;100303.25;1782781;80;20443;-74
2021/08/09 09:03:42;;;;;;;;;;;;;;;30.04;39.59;100302.02;1766289;80;20120;-74
2021/08/09 09:06:14;;;;;;;;;;;;;;;30.11;39.32;100310.91;1795342;79;21614;-73
2021/08/09 09:08:47;;;;;;;;;;;;;;;30.10;38.75;100303.89;1783128;79;20085;-72
2021/08/09 09:11:24;;;;;;;;;;;;;;;30.03;37.83;100308.42;1766302;80;20167;-70
2021/08/09 09:14:05;;;;;;;;;;;;;;;29.92;38.73;100302.31;1778135;79;20466;-74
2021/08/09 09:16:51;;;;;;;;;;;;;;;29.86;39.42;100299.41;1751077;80;20147;-73
2021/08/09 09:19:43;;;;;;;;;;;;;;;29.69;39.14;100304.02;1717015;79;22048;-75
2021/08/09 09:22:24;;;;;;;;;;;;;;;29.40;39.13;100303.31;1758010;81;20413;-75
2021/08/09 09:24:55;;;;;;;;;;;;;;;29.18;40.58;100299.95;1760004;81;20153;-80
2021/08/09 09:27:29;;;;;;;;;;;;;;;29.08;40.52;100299.49;1733865;82;20435;-74
2021/08/09 09:29:57;;;;;;;;;;;;;;;29.11;40.72;100292.91;1739607;80;20472;-80
2021/08/09 09:32:44;;;;;;;;;;;;;;;29.11;40.69;100288.37;1776731;80;20086;-80
2021/08/09 09:35:13;;;;;;;;;;;;;;;29.05;40.22;100283.80;1752926;82;20110;-77
2021/08/09 09:37:41;;;;;;;;;;;;;;;29.03;40.39;100285.03;1748340;81;20131;-72
2021/08/09 09:40:19;;;;;;;;;;;;;;;29.03;40.16;100285.86;1766800;80;20093;-75
2021/08/09 09:42:48;;;;;;;;;;;;;;;28.98;39.24;100290.16;1751338;80;20120;-77
2021/08/09 09:45:23;;;;;;;;;;;;;;;28.84;39.73;100290.59;1787020;79;21142;-76
2021/08/09 09:48:07;;;;;;;;;;;;;;;28.69;41.08;100303.28;1760462;79;20125;-77
2021/08/09 09:50:36;;;;;;;;;;;;;;;28.51;41.13;100295.23;1777607;79;20452;-81
2021/08/09 09:53:24;;;;;;;;;;;;;;;28.40;41.40;100293.08;1770079;79;20129;-73
2021/08/09 09:55:53;;;;;;;;;;;;;;;28.37;41.26;100289.48;1762308;79;20446;-73
2021/08/09 09:58:19;;;;;;;;;;;;;;;28.38;41.19;100293.82;1785982;78;22336;-69
2021/08/09 10:00:47;;;;;;;;;;;;;;;28.44;41.51;100286.31;1765697;80;20155;-69
2021/08/09 10:03:20;;;;;;;;;;;;;;;28.49;39.97;100285.22;1766733;81;20144;-70
2021/08/09 10:05:48;;;;;;;;;;;;;;;28.50;39.41;100280.17;1767068;81;20390;-67
2021/08/09 10:08:17;;;;;;;;;;;;;;;28.47;40.58;100288.60;1765894;81;20140;-67
2021/08/09 10:10:48;;;;;;;;;;;;;;;28.46;40.47;100281.59;1767180;81;21109;-68
2021/08/09 10:13:22;;;;;;;;;;;;;;;28.42;40.81;100274.14;1766867;81;20089;-68
2021/08/09 10:15:55;;;;;;;;;;;;;;;28.40;41.20;100275.67;1747999;81;20109;-68
2021/08/09 10:18:27;;;;;;;;;;;;;;;28.39;41.24;100282.05;1766586;81;20490;-68
2021/08/09 10:20:54;;;;;;;;;;;;;;;28.36;40.74;100274.44;1766160;81;20125;-69
2021/08/09 10:23:41;;;;;;;;;;;;;;;28.31;40.76;100277.37;1753714;78;22131;-68
2021/08/09 10:26:23;;;;;;;;;;;;;;;28.25;40.81;100274.97;1779102;80;20469;-69
2021/08/09 10:28:55;;;;;;;;;;;;;;;28.22;40.22;100280.70;1730426;80;20081;-68
2021/08/09 10:31:25;;;;;;;;;;;;;;;28.19;39.63;100272.52;1787899;78;20141;-68
2021/08/09 10:33:52;;;;;;;;;;;;;;;28.15;39.61;100270.42;1778929;78;20104;-68
2021/08/09 10:36:24;;;;;;;;;;;;;;;28.09;39.44;100272.02;1794421;78;21117;-67
2021/08/09 10:38:52;;;;;;;;;;;;;;;28.03;39.74;100277.31;1775908;79;20162;-67
2021/08/09 10:41:31;;;;;;;;;;;;;;;27.96;39.57;100271.94;1776451;79;20083;-67
2021/08/09 10:44:08;;;;;;;;;;;;;;;27.92;38.34;100281.37;1756245;80;20195;-70
2021/08/09 10:46:42;;;;;;;;;;;;;;;27.92;38.15;100274.67;1760650;78;20171;-68
2021/08/09 10:49:42;;;;;;;;;;;;;;;27.96;36.40;100275.13;1761029;80;21167;-68
2021/08/09 10:52:11;;;;;;;;;;;;;;;27.97;38.02;100277.61;1726665;80;20197;-69
2021/08/09 10:54:38;;;;;;;;;;;;;;;27.97;39.31;100289.66;1802234;79;20432;-68
2021/08/09 10:57:05;;;;;;;;;;;;;;;27.96;38.50;100269.77;1772189;78;20166;-68
2021/08/09 10:59:43;;;;;;;;;;;;;;;27.96;38.90;100263.91;1781061;78;20148;-67
2021/08/09 11:02:18;;;;;;;;;;;;;;;27.96;39.64;100259.89;1786034;78;21570;-68
2021/08/09 11:05:17;;;;;;;;;;;;;;;27.97;39.95;100260.72;1767427;78;20080;-69
2021/08/09 11:07:45;;;;;;;;;;;;;;;28.00;39.63;100254.95;1783629;80;20128;-68
2021/08/09 11:10:13;;;;;;;;;;;;;;;28.03;38.16;100257.23;1761896;80;20477;-66
2021/08/09 11:12:59;;;;;;;;;;;;;;;28.03;38.30;100249.21;1798116;78;20405;-72
2021/08/09 11:15:26;;;;;;;;;;;;;;;28.03;37.94;100245.20;1812908;77;20799;-67
2021/08/09 11:17:58;;;;;;;;;;;;;;;28.05;38.54;100240.47;1809140;77;20127;-67
2021/08/09 11:20:32;;;;;;;;;;;;;;;28.07;38.66;100242.45;1806310;77;20116;-68
2021/08/09 11:23:04;;;;;;;;;;;;;;;28.07;38.26;100243.27;1813061;77;20529;-73
2021/08/09 11:25:48;;;;;;;;;;;;;;;28.08;37.67;100249.45;1796973;78;20445;-75
2021/08/09 11:28:22;;;;;;;;;;;;;;;28.11;36.97;100259.78;1828910;77;21133;-76
2021/08/09 11:30:54;;;;;;;;;;;;;;;28.13;36.03;100261.75;1801709;77;20172;-78
2021/08/09 11:33:36;;;;;;;;;;;;;;;28.12;35.79;100259.59;1810177;77;20076;-76
2021/08/09 11:36:06;;;;;;;;;;;;;;;28.14;35.79;100263.41;1771569;79;20183;-73
2021/08/09 11:38:50;;;;;;;;;;;;;;;28.14;36.12;100261.56;1823682;78;20430;-74
2021/08/09 11:41:24;;;;;;;;;;;;;;;28.16;35.80;100264.88;1831573;77;21151;-75
2021/08/09 11:44:05;;;;;;;;;;;;;;;28.18;36.29;100263.34;1802167;77;20111;-75
2021/08/09 11:46:47;;;;;;;;;;;;;;;28.19;36.90;100260.47;1818933;77;20171;-75
2021/08/09 11:49:30;;;;;;;;;;;;;;;28.22;37.36;100259.28;1826587;78;20470;-74
2021/08/09 11:51:51;;;;;;;;;;;;;;;28.23;37.19;100250.23;1836880;77;20091;-74
2021/08/09 11:54:21;;;;;;;;;;;;;;;28.22;37.28;100247.23;1741439;80;21320;-77
2021/08/09 11:56:55;;;;;;;;;;;;;;;28.24;37.43;100250.55;1823200;78;20105;-71
2021/08/09 11:59:22;;;;;;;;;;;;;;;28.23;38.12;100246.22;1826913;78;20165;-72
2021/08/09 12:01:49;;;;;;;;;;;;;;;28.23;38.00;100240.86;1825241;78;20113;-71
2021/08/09 12:04:19;;;;;;;;;;;;;;;28.25;38.07;100242.83;1810064;78;20094;-72
2021/08/09 12:06:51;;;;;;;;;;;;;;;28.27;37.94;100232.75;1806843;79;21372;-77
2021/08/09 12:09:23;;;;;;;;;;;;;;;28.30;38.05;100239.06;1786677;78;20069;-77
2021/08/09 12:12:00;;;;;;;;;;;;;;;28.34;37.95;100229.61;1782838;78;20409;-75
2021/08/09 12:14:26;;;;;;;;;;;;;;;28.35;38.33;100240.64;1796571;77;20146;-76
2021/08/09 12:16:56;;;;;;;;;;;;;;;28.38;37.68;100234.06;1787576;78;20088;-80
2021/08/09 12:19:45;;;;;;;;;;;;;;;28.37;37.98;100229.22;1789320;77;21177;-80
2021/08/09 12:22:18;;;;;;;;;;;;;;;28.37;38.11;100238.59;1789102;79;20413;-76
2021/08/09 12:25:00;;;;;;;;;;;;;;;28.38;38.13;100236.23;1786197;79;20089;-75
2021/08/09 12:27:30;;;;;;;;;;;;;;;28.42;38.50;100232.62;1802115;78;20359;-76
2021/08/09 12:30:11;;;;;;;;;;;;;;;28.47;38.33;100231.52;1778020;79;20470;-74
2021/08/09 12:33:01;;;;;;;;;;;;;;;28.50;38.18;100226.59;1816495;77;21513;-74
2021/08/09 12:35:36;;;;;;;;;;;;;;;28.51;38.53;100228.25;1810344;77;20090;-74
2021/08/09 12:38:08;;;;;;;;;;;;;;;28.53;38.04;100228.88;1800431;77;20175;-78
2021/08/09 12:40:44;;;;;;;;;;;;;;;28.54;38.07;100225.17;1820994;77;20108;-70
2021/08/09 12:43:13;;;;;;;;;;;;;;;28.57;37.52;100226.63;1800090;78;20092;-73
2021/08/09 12:45:41;;;;;;;;;;;;;;;28.58;37.79;100220.77;1798554;78;21123;-76
2021/08/09 12:48:09;;;;;;;;;;;;;;;28.57;37.44;100218.59;1792064;78;20078;-69
2021/08/09 12:50:37;;;;;;;;;;;;;;;28.58;37.18;100213.55;1764143;78;20450;-75
2021/08/09 12:53:05;;;;;;;;;;;;;;;28.55;37.00;100212.09;1770694;78;20426;-75
2021/08/09 12:55:36;;;;;;;;;;;;;;;28.55;37.77;100213.44;1787509;78;20164;-78
2021/08/09 12:58:04;;;;;;;;;;;;;;;28.59;37.45;100219.73;1789452;78;21095;-72
2021/08/09 13:00:33;;;;;;;;;;;;;;;28.60;37.07;100211.50;1815541;77;20255;-75
2021/08/09 13:03:03;;;;;;;;;;;;;;;28.63;37.22;100219.14;1799366;78;20412;-75
2021/08/09 13:05:32;;;;;;;;;;;;;;;28.66;36.90;100212.56;1802986;78;20191;-75
2021/08/09 13:07:59;;;;;;;;;;;;;;;28.67;36.95;100206.18;1801356;78;20121;-75
2021/08/09 13:10:25;;;;;;;;;;;;;;;28.70;37.42;100208.46;1800244;78;22111;-76
2021/08/09 13:12:52;;;;;;;;;;;;;;;28.72;36.20;100209.92;1812075;77;20095;-77
2021/08/09 13:15:22;;;;;;;;;;;;;;;28.74;36.33;100210.55;1822108;77;20094;-77
2021/08/09 13:17:49;;;;;;;;;;;;;;;28.76;36.16;100209.02;1810909;79;20096;-80
2021/08/09 13:20:21;;;;;;;;;;;;;;;28.78;35.18;100212.31;1802609;79;20096;-74
2021/08/09 13:22:49;;;;;;;;;;;;;;;28.79;34.61;100214.77;1787974;79;21070;-73
2021/08/09 13:25:23;;;;;;;;;;;;;;;28.79;34.51;100211.30;1805526;77;20086;-75
2021/08/09 13:27:55;;;;;;;;;;;;;;;28.76;34.75;100203.14;1820935;79;20094;-72
2021/08/09 13:30:25;;;;;;;;;;;;;;;28.74;35.29;100207.87;1789337;78;20084;-75
2021/08/09 13:32:54;;;;;;;;;;;;;;;28.74;34.83;100205.70;1802060;79;20089;-72
2021/08/09 13:35:21;;;;;;;;;;;;;;;28.74;34.50;100200.34;1803502;77;21134;-74
2021/08/09 13:37:48;;;;;;;;;;;;;;;28.74;34.59;100193.64;1789287;79;20112;-73
2021/08/09 13:40:15;;;;;;;;;;;;;;;28.74;35.01;100193.64;1794021;78;20092;-73
2021/08/09 13:42:43;;;;;;;;;;;;;;;28.74;36.27;100193.13;1811857;77;20409;-76
2021/08/09 13:45:26;;;;;;;;;;;;;;;28.76;35.95;100192.93;1814486;77;20084;-75
2021/08/09 13:47:58;;;;;;;;;;;;;;;28.75;35.72;100188.08;1802246;79;20119;-75
2021/08/09 13:50:25;;;;;;;;;;;;;;;28.76;35.13;100192.93;1789746;77;20120;-71
2021/08/09 13:52:51;;;;;;;;;;;;;;;28.77;34.87;100188.70;1794021;79;20396;-74
2021/08/09 13:55:19;;;;;;;;;;;;;;;28.78;35.41;100189.53;1796783;79;20119;-70
2021/08/09 13:57:46;;;;;;;;;;;;;;;28.79;35.78;100189.84;1789626;79;20093;-67
2021/08/09 14:00:14;;;;;;;;;;;;;;;28.81;35.91;100195.81;1790283;78;21084;-76
2021/08/09 14:02:42;;;;;;;;;;;;;;;28.81;35.53;100195.81;1802887;79;20066;-67
2021/08/09 14:05:11;;;;;;;;;;;;;;;28.81;35.62;100192.64;1828629;77;20092;-66
2021/08/09 14:07:38;;;;;;;;;;;;;;;28.80;36.06;100186.11;1854074;77;20434;-67
